sensor_id;sensor_type;location;lat;lon;timestamp;pressure;altitude;pressure_sealevel;temperature;humidity
49104;BME280;34915;52.926;11.116;2022-08-18T00:01:44;100944.34;;;21.34;93.32
49104;BME280;34915;52.926;11.116;2022-08-18T00:04:13;100940.34;;;21.22;93.45
49104;BME280;34915;52.926;11.116;2022-08-18T00:06:39;100938.34;;;21.16;94.50
49104;BME280;34915;52.926;11.116;2022-08-18T00:09:07;100943.22;;;21.13;93.94
49104;BME280;34915;52.926;11.116;2022-08-18T00:11:37;100918.81;;;21.06;96.14
49104;BME280;34915;52.926;11.116;2022-08-18T00:14:04;100932.28;;;21.06;94.79
49104;BME280;34915;52.926;11.116;2022-08-18T00:16:29;100925.88;;;20.99;94.92
49104;BME280;34915;52.926;11.116;2022-08-18T00:18:55;100918.13;;;20.88;95.08
49104;BME280;34915;52.926;11.116;2022-08-18T00:21:21;100918.13;;;20.88;94.98
49104;BME280;34915;52.926;11.116;2022-08-18T00:23:46;100927.25;;;20.87;94.89
49104;BME280;34915;52.926;11.116;2022-08-18T00:26:12;100923.88;;;20.85;95.49
49104;BME280;34915;52.926;11.116;2022-08-18T00:28:37;100917.81;;;20.83;95.60
49104;BME280;34915;52.926;11.116;2022-08-18T00:31:04;100923.03;;;20.85;94.27
49104;BME280;34915;52.926;11.116;2022-08-18T00:33:30;100912.09;;;20.78;94.83
49104;BME280;34915;52.926;11.116;2022-08-18T00:35:56;100910.06;;;20.88;94.39
49104;BME280;34915;52.926;11.116;2022-08-18T00:38:21;100925.88;;;20.91;94.35
49104;BME280;34915;52.926;11.116;2022-08-18T00:40:49;100919.34;;;20.86;93.92
49104;BME280;34915;52.926;11.116;2022-08-18T00:43:43;100912.75;;;20.88;94.28
49104;BME280;34915;52.926;11.116;2022-08-18T00:46:14;100920.16;;;20.86;94.98
49104;BME280;34915;52.926;11.116;2022-08-18T00:48:40;100907.06;;;20.76;95.37
49104;BME280;34915;52.926;11.116;2022-08-18T00:51:11;100913.78;;;20.72;95.53
49104;BME280;34915;52.926;11.116;2022-08-18T00:56:20;100913.09;;;20.70;96.15
49104;BME280;34915;52.926;11.116;2022-08-18T00:58:55;100896.91;;;20.62;96.51
49104;BME280;34915;52.926;11.116;2022-08-18T01:01:24;100897.56;;;20.64;97.28
49104;BME280;34915;52.926;11.116;2022-08-18T01:03:56;100898.94;;;20.68;97.71
49104;BME280;34915;52.926;11.116;2022-08-18T01:06:41;100906.03;;;20.69;97.18
49104;BME280;34915;52.926;11.116;2022-08-18T01:09:09;100898.63;;;20.71;98.04
49104;BME280;34915;52.926;11.116;2022-08-18T01:11:37;100910.75;;;20.75;97.93
49104;BME280;34915;52.926;11.116;2022-08-18T01:14:05;100906.38;;;20.74;97.21
49104;BME280;34915;52.926;11.116;2022-08-18T01:16:32;100899.16;;;20.74;96.72
49104;BME280;34915;52.926;11.116;2022-08-18T01:19:17;100898.78;;;20.61;98.08
49104;BME280;34915;52.926;11.116;2022-08-18T01:22:16;100911.22;;;20.62;98.53
49104;BME280;34915;52.926;11.116;2022-08-18T01:24:43;100913.72;;;20.64;98.74
49104;BME280;34915;52.926;11.116;2022-08-18T01:27:29;100911.72;;;20.50;98.44
49104;BME280;34915;52.926;11.116;2022-08-18T01:30:03;100912.06;;;20.55;99.56
49104;BME280;34915;52.926;11.116;2022-08-18T01:32:29;100914.25;;;20.51;98.05
49104;BME280;34915;52.926;11.116;2022-08-18T01:34:54;100903.97;;;20.39;98.69
49104;BME280;34915;52.926;11.116;2022-08-18T01:37:22;100906.97;;;20.36;99.71
49104;BME280;34915;52.926;11.116;2022-08-18T01:39:48;100909.00;;;20.42;100.00
49104;BME280;34915;52.926;11.116;2022-08-18T01:42:15;100905.31;;;20.43;100.00
49104;BME280;34915;52.926;11.116;2022-08-18T01:44:45;100910.53;;;20.36;99.84
49104;BME280;34915;52.926;11.116;2022-08-18T01:47:12;100905.28;;;20.27;99.94
49104;BME280;34915;52.926;11.116;2022-08-18T01:49:39;100897.56;;;20.16;100.00
49104;BME280;34915;52.926;11.116;2022-08-18T01:52:10;100911.19;;;20.15;100.00
49104;BME280;34915;52.926;11.116;2022-08-18T01:54:35;100910.16;;;20.08;100.00
49104;BME280;34915;52.926;11.116;2022-08-18T01:57:03;100913.34;;;20.11;100.00
49104;BME280;34915;52.926;11.116;2022-08-18T01:59:29;100909.59;;;20.04;100.00
49104;BME280;34915;52.926;11.116;2022-08-18T02:01:55;100893.78;;;19.93;100.00
49104;BME280;34915;52.926;11.116;2022-08-18T02:04:23;100905.56;;;19.92;100.00
49104;BME280;34915;52.926;11.116;2022-08-18T02:06:51;100901.03;;;19.93;100.00
49104;BME280;34915;52.926;11.116;2022-08-18T02:09:17;100906.25;;;20.02;100.00
49104;BME280;34915;52.926;11.116;2022-08-18T02:11:43;100897.19;;;20.03;100.00
49104;BME280;34915;52.926;11.116;2022-08-18T02:14:08;100894.50;;;20.03;100.00
49104;BME280;34915;52.926;11.116;2022-08-18T02:16:34;100898.19;;;19.94;100.00
49104;BME280;34915;52.926;11.116;2022-08-18T02:18:59;100912.13;;;19.90;100.00
49104;BME280;34915;52.926;11.116;2022-08-18T02:21:25;100906.91;;;19.96;100.00
49104;BME280;34915;52.926;11.116;2022-08-18T02:23:50;100897.84;;;19.97;100.00
49104;BME280;34915;52.926;11.116;2022-08-18T02:26:17;100892.81;;;19.94;100.00
49104;BME280;34915;52.926;11.116;2022-08-18T02:28:43;100883.00;;;19.85;100.00
49104;BME280;34915;52.926;11.116;2022-08-18T02:31:14;100891.09;;;19.93;100.00
49104;BME280;34915;52.926;11.116;2022-08-18T02:33:40;100887.75;;;19.91;100.00
49104;BME280;34915;52.926;11.116;2022-08-18T02:36:06;100894.06;;;19.82;100.00
49104;BME280;34915;52.926;11.116;2022-08-18T02:38:32;100883.63;;;19.79;100.00
49104;BME280;34915;52.926;11.116;2022-08-18T02:41:00;100886.06;;;19.90;100.00
49104;BME280;34915;52.926;11.116;2022-08-18T02:43:27;100900.00;;;19.94;100.00
49104;BME280;34915;52.926;11.116;2022-08-18T02:45:53;100894.78;;;19.92;98.31
49104;BME280;34915;52.926;11.116;2022-08-18T02:48:19;100902.84;;;19.92;99.64
49104;BME280;34915;52.926;11.116;2022-08-18T02:53:25;100924.13;;;19.78;100.00
49104;BME280;34915;52.926;11.116;2022-08-18T02:55:53;100914.16;;;19.63;100.00
49104;BME280;34915;52.926;11.116;2022-08-18T02:58:19;100907.47;;;19.75;100.00
49104;BME280;34915;52.926;11.116;2022-08-18T03:00:45;100918.56;;;19.72;100.00
49104;BME280;34915;52.926;11.116;2022-08-18T03:03:10;100922.56;;;19.68;100.00
49104;BME280;34915;52.926;11.116;2022-08-18T03:05:38;100914.47;;;19.60;100.00
49104;BME280;34915;52.926;11.116;2022-08-18T03:08:04;100926.59;;;19.64;100.00
49104;BME280;34915;52.926;11.116;2022-08-18T03:10:29;100929.66;;;19.69;100.00
49104;BME280;34915;52.926;11.116;2022-08-18T03:12:57;100935.03;;;19.69;100.00
49104;BME280;34915;52.926;11.116;2022-08-18T03:15:22;100921.22;;;19.64;100.00
49104;BME280;34915;52.926;11.116;2022-08-18T03:17:48;100926.22;;;19.59;100.00
49104;BME280;34915;52.926;11.116;2022-08-18T03:20:13;100924.19;;;19.53;100.00
49104;BME280;34915;52.926;11.116;2022-08-18T03:22:40;100931.03;;;19.47;100.00
49104;BME280;34915;52.926;11.116;2022-08-18T03:25:06;100936.53;;;19.38;100.00
49104;BME280;34915;52.926;11.116;2022-08-18T03:27:32;100933.81;;;19.30;100.00
49104;BME280;34915;52.926;11.116;2022-08-18T03:29:57;100927.72;;;19.20;100.00
49104;BME280;34915;52.926;11.116;2022-08-18T03:32:23;100930.84;;;19.16;100.00
49104;BME280;34915;52.926;11.116;2022-08-18T03:34:49;100930.69;;;19.17;100.00
49104;BME280;34915;52.926;11.116;2022-08-18T03:37:14;100930.00;;;19.15;100.00
49104;BME280;34915;52.926;11.116;2022-08-18T03:39:41;100922.41;;;19.03;100.00
49104;BME280;34915;52.926;11.116;2022-08-18T03:42:06;100923.81;;;18.97;100.00
49104;BME280;34915;52.926;11.116;2022-08-18T03:44:34;100921.38;;;18.86;100.00
49104;BME280;34915;52.926;11.116;2022-08-18T03:47:06;100930.31;;;18.87;100.00
49104;BME280;34915;52.926;11.116;2022-08-18T03:49:32;100928.09;;;18.82;100.00
49104;BME280;34915;52.926;11.116;2022-08-18T03:51:58;100929.75;;;18.83;100.00
49104;BME280;34915;52.926;11.116;2022-08-18T03:54:27;100930.81;;;18.90;100.00
49104;BME280;34915;52.926;11.116;2022-08-18T03:56:53;100925.97;;;18.94;100.00
49104;BME280;34915;52.926;11.116;2022-08-18T03:59:22;100940.56;;;18.91;100.00
49104;BME280;34915;52.926;11.116;2022-08-18T04:01:51;100942.19;;;18.84;100.00
49104;BME280;34915;52.926;11.116;2022-08-18T04:04:25;100946.47;;;18.77;100.00
49104;BME280;34915;52.926;11.116;2022-08-18T04:07:04;100950.19;;;18.77;100.00
49104;BME280;34915;52.926;11.116;2022-08-18T04:09:31;100950.19;;;18.77;100.00
49104;BME280;34915;52.926;11.116;2022-08-18T04:12:03;100957.34;;;18.93;100.00
49104;BME280;34915;52.926;11.116;2022-08-18T04:14:30;100958.81;;;19.05;100.00
49104;BME280;34915;52.926;11.116;2022-08-18T04:16:57;100948.94;;;19.06;100.00
49104;BME280;34915;52.926;11.116;2022-08-18T04:19:23;100949.53;;;19.00;100.00
49104;BME280;34915;52.926;11.116;2022-08-18T04:21:51;100944.91;;;18.92;100.00
49104;BME280;34915;52.926;11.116;2022-08-18T04:24:18;100936.50;;;18.87;100.00
49104;BME280;34915;52.926;11.116;2022-08-18T04:26:45;100950.00;;;18.95;100.00
49104;BME280;34915;52.926;11.116;2022-08-18T04:29:13;100937.56;;;18.94;100.00
49104;BME280;34915;52.926;11.116;2022-08-18T04:31:40;100946.31;;;18.96;100.00
49104;BME280;34915;52.926;11.116;2022-08-18T04:34:05;100943.13;;;19.01;100.00
49104;BME280;34915;52.926;11.116;2022-08-18T04:36:33;100949.78;;;19.06;100.00
49104;BME280;34915;52.926;11.116;2022-08-18T04:39:00;100946.78;;;19.09;100.00
49104;BME280;34915;52.926;11.116;2022-08-18T04:41:26;100930.72;;;19.00;100.00
49104;BME280;34915;52.926;11.116;2022-08-18T04:43:54;100944.72;;;19.03;100.00
49104;BME280;34915;52.926;11.116;2022-08-18T04:46:20;100951.78;;;19.04;100.00
49104;BME280;34915;52.926;11.116;2022-08-18T04:48:45;100958.16;;;19.03;100.00
49104;BME280;34915;52.926;11.116;2022-08-18T04:51:16;100961.81;;;19.02;100.00
49104;BME280;34915;52.926;11.116;2022-08-18T04:53:43;100975.38;;;19.01;100.00
49104;BME280;34915;52.926;11.116;2022-08-18T04:56:19;100974.53;;;19.00;100.00
49104;BME280;34915;52.926;11.116;2022-08-18T04:58:47;100976.22;;;19.01;100.00
49104;BME280;34915;52.926;11.116;2022-08-18T05:01:19;100975.63;;;19.07;100.00
49104;BME280;34915;52.926;11.116;2022-08-18T05:03:47;100983.31;;;19.02;100.00
49104;BME280;34915;52.926;11.116;2022-08-18T05:06:13;100975.97;;;19.04;100.00
49104;BME280;34915;52.926;11.116;2022-08-18T05:08:39;100976.78;;;19.05;100.00
49104;BME280;34915;52.926;11.116;2022-08-18T05:11:05;100986.06;;;19.10;100.00
49104;BME280;34915;52.926;11.116;2022-08-18T05:13:31;100977.69;;;19.13;100.00
49104;BME280;34915;52.926;11.116;2022-08-18T05:15:59;100974.69;;;19.16;100.00
49104;BME280;34915;52.926;11.116;2022-08-18T05:18:31;100984.81;;;19.22;100.00
49104;BME280;34915;52.926;11.116;2022-08-18T05:20:57;100988.47;;;19.21;100.00
49104;BME280;34915;52.926;11.116;2022-08-18T05:23:25;100997.25;;;19.23;100.00
49104;BME280;34915;52.926;11.116;2022-08-18T05:25:56;101005.31;;;19.23;100.00
49104;BME280;34915;52.926;11.116;2022-08-18T05:28:22;101001.38;;;19.35;100.00
49104;BME280;34915;52.926;11.116;2022-08-18T05:30:48;100991.69;;;19.42;100.00
49104;BME280;34915;52.926;11.116;2022-08-18T05:33:13;100992.66;;;19.41;100.00
49104;BME280;34915;52.926;11.116;2022-08-18T05:35:45;100997.25;;;19.48;100.00
49104;BME280;34915;52.926;11.116;2022-08-18T05:41:06;100998.41;;;19.46;100.00
49104;BME280;34915;52.926;11.116;2022-08-18T05:43:32;100996.56;;;19.46;100.00
49104;BME280;34915;52.926;11.116;2022-08-18T05:46:00;100991.72;;;19.50;100.00
49104;BME280;34915;52.926;11.116;2022-08-18T05:48:26;100997.97;;;19.58;100.00
49104;BME280;34915;52.926;11.116;2022-08-18T05:50:53;100991.84;;;19.74;100.00
49104;BME280;34915;52.926;11.116;2022-08-18T05:53:20;100983.28;;;19.78;100.00
49104;BME280;34915;52.926;11.116;2022-08-18T05:56:09;100980.50;;;19.87;100.00
49104;BME280;34915;52.926;11.116;2022-08-18T05:58:55;100977.69;;;19.97;100.00
49104;BME280;34915;52.926;11.116;2022-08-18T06:01:31;100977.03;;;20.03;100.00
49104;BME280;34915;52.926;11.116;2022-08-18T06:06:51;100966.28;;;20.03;100.00
49104;BME280;34915;52.926;11.116;2022-08-18T06:10:04;100958.41;;;20.09;100.00
49104;BME280;34915;52.926;11.116;2022-08-18T06:14:45;100957.09;;;20.13;100.00
49104;BME280;34915;52.926;11.116;2022-08-18T06:19:55;100967.22;;;20.43;100.00
49104;BME280;34915;52.926;11.116;2022-08-18T06:22:35;100968.59;;;20.55;100.00
49104;BME280;34915;52.926;11.116;2022-08-18T06:25:15;100967.94;;;20.61;100.00
49104;BME280;34915;52.926;11.116;2022-08-18T06:31:00;100982.28;;;20.85;100.00
49104;BME280;34915;52.926;11.116;2022-08-18T06:33:48;100987.19;;;20.97;99.87
49104;BME280;34915;52.926;11.116;2022-08-18T06:39:17;100982.44;;;21.23;98.12
49104;BME280;34915;52.926;11.116;2022-08-18T06:41:50;100979.75;;;21.31;98.50
49104;BME280;34915;52.926;11.116;2022-08-18T06:44:48;100984.59;;;21.43;97.69
49104;BME280;34915;52.926;11.116;2022-08-18T06:47:42;100984.09;;;21.56;97.04
49104;BME280;34915;52.926;11.116;2022-08-18T06:50:41;100990.81;;;21.68;95.55
49104;BME280;34915;52.926;11.116;2022-08-18T06:53:06;100988.81;;;21.62;96.85
49104;BME280;34915;52.926;11.116;2022-08-18T06:55:48;100989.81;;;21.69;96.87
49104;BME280;34915;52.926;11.116;2022-08-18T07:08:37;101002.78;;;22.11;94.97
49104;BME280;34915;52.926;11.116;2022-08-18T07:11:18;101002.41;;;22.30;93.44
49104;BME280;34915;52.926;11.116;2022-08-18T07:13:49;100999.66;;;22.38;93.41
49104;BME280;34915;52.926;11.116;2022-08-18T07:18:47;100997.88;;;22.53;91.46
49104;BME280;34915;52.926;11.116;2022-08-18T07:21:28;100999.56;;;22.54;92.35
49104;BME280;34915;52.926;11.116;2022-08-18T07:24:24;100999.16;;;22.65;92.83
49104;BME280;34915;52.926;11.116;2022-08-18T07:27:05;101010.25;;;22.92;90.60
49104;BME280;34915;52.926;11.116;2022-08-18T07:29:35;101017.72;;;23.12;88.77
49104;BME280;34915;52.926;11.116;2022-08-18T07:32:14;101009.19;;;23.23;87.89
49104;BME280;34915;52.926;11.116;2022-08-18T07:34:47;101013.88;;;23.29;88.16
49104;BME280;34915;52.926;11.116;2022-08-18T07:39:50;101015.41;;;23.46;86.09
49104;BME280;34915;52.926;11.116;2022-08-18T07:42:38;101020.31;;;23.65;84.37
49104;BME280;34915;52.926;11.116;2022-08-18T07:45:28;101017.13;;;23.76;83.04
49104;BME280;34915;52.926;11.116;2022-08-18T07:48:12;101012.88;;;23.95;82.88
49104;BME280;34915;52.926;11.116;2022-08-18T07:56:16;101013.75;;;24.31;78.83
49104;BME280;34915;52.926;11.116;2022-08-18T07:58:53;101020.13;;;24.38;77.37
49104;BME280;34915;52.926;11.116;2022-08-18T08:07:08;101032.13;;;24.50;76.02
49104;BME280;34915;52.926;11.116;2022-08-18T08:12:08;101032.72;;;24.80;75.23
49104;BME280;34915;52.926;11.116;2022-08-18T08:14:45;101030.31;;;24.92;73.47
49104;BME280;34915;52.926;11.116;2022-08-18T08:17:39;101031.31;;;25.05;72.19
49104;BME280;34915;52.926;11.116;2022-08-18T08:20:12;101032.22;;;25.12;72.20
49104;BME280;34915;52.926;11.116;2022-08-18T08:23:02;101033.16;;;25.19;71.50
49104;BME280;34915;52.926;11.116;2022-08-18T08:25:44;101033.66;;;25.29;71.31
49104;BME280;34915;52.926;11.116;2022-08-18T08:28:22;101039.59;;;25.39;71.38
49104;BME280;34915;52.926;11.116;2022-08-18T08:31:02;101042.03;;;25.34;70.50
49104;BME280;34915;52.926;11.116;2022-08-18T08:33:41;101037.28;;;25.36;70.65
49104;BME280;34915;52.926;11.116;2022-08-18T08:36:20;101029.88;;;25.51;70.08
49104;BME280;34915;52.926;11.116;2022-08-18T08:38:54;101037.06;;;25.65;69.47
49104;BME280;34915;52.926;11.116;2022-08-18T08:44:08;101033.09;;;25.40;68.66
49104;BME280;34915;52.926;11.116;2022-08-18T08:46:43;101034.06;;;25.26;68.92
49104;BME280;34915;52.926;11.116;2022-08-18T08:52:22;101043.59;;;25.22;70.84
49104;BME280;34915;52.926;11.116;2022-08-18T08:55:03;101046.44;;;25.35;71.15
49104;BME280;34915;52.926;11.116;2022-08-18T08:57:35;101040.84;;;25.43;71.31
49104;BME280;34915;52.926;11.116;2022-08-18T09:00:05;101038.41;;;25.48;71.28
49104;BME280;34915;52.926;11.116;2022-08-18T09:02:58;101045.28;;;25.23;71.47
49104;BME280;34915;52.926;11.116;2022-08-18T09:06:23;101043.94;;;25.13;72.13
49104;BME280;34915;52.926;11.116;2022-08-18T09:24:50;101045.69;;;25.20;71.98
49104;BME280;34915;52.926;11.116;2022-08-18T09:27:34;101041.47;;;25.18;72.07
49104;BME280;34915;52.926;11.116;2022-08-18T09:30:05;101035.72;;;25.06;71.58
49104;BME280;34915;52.926;11.116;2022-08-18T09:33:03;101035.53;;;25.08;72.24
49104;BME280;34915;52.926;11.116;2022-08-18T09:38:22;101045.63;;;24.99;71.33
49104;BME280;34915;52.926;11.116;2022-08-18T09:41:12;101052.94;;;24.78;72.89
49104;BME280;34915;52.926;11.116;2022-08-18T09:44:05;101030.13;;;24.73;74.07
49104;BME280;34915;52.926;11.116;2022-08-18T09:57:22;101060.44;;;24.97;71.87
49104;BME280;34915;52.926;11.116;2022-08-18T10:07:52;101047.59;;;25.05;71.70
49104;BME280;34915;52.926;11.116;2022-08-18T10:13:25;101036.66;;;24.99;71.69
49104;BME280;34915;52.926;11.116;2022-08-18T10:16:30;101046.69;;;24.98;71.68
49104;BME280;34915;52.926;11.116;2022-08-18T10:22:12;101039.22;;;25.00;73.90
49104;BME280;34915;52.926;11.116;2022-08-18T10:24:55;101043.94;;;25.13;72.33
49104;BME280;34915;52.926;11.116;2022-08-18T10:32:55;101056.00;;;25.10;71.98
49104;BME280;34915;52.926;11.116;2022-08-18T10:40:57;101053.94;;;25.12;72.43
49104;BME280;34915;52.926;11.116;2022-08-18T10:43:34;101053.03;;;25.05;72.34
49104;BME280;34915;52.926;11.116;2022-08-18T10:46:01;101056.94;;;25.17;72.39
49104;BME280;34915;52.926;11.116;2022-08-18T10:48:30;101052.88;;;25.34;71.39
49104;BME280;34915;52.926;11.116;2022-08-18T10:51:19;101053.91;;;25.54;71.56
49104;BME280;34915;52.926;11.116;2022-08-18T10:53:54;101047.53;;;25.40;70.59
49104;BME280;34915;52.926;11.116;2022-08-18T11:01:43;101059.84;;;25.43;70.78
49104;BME280;34915;52.926;11.116;2022-08-18T11:04:23;101058.44;;;25.47;70.53
49104;BME280;34915;52.926;11.116;2022-08-18T11:06:59;101056.75;;;25.46;70.85
49104;BME280;34915;52.926;11.116;2022-08-18T11:09:27;101055.19;;;25.58;70.24
49104;BME280;34915;52.926;11.116;2022-08-18T11:11:57;101059.09;;;25.70;70.18
49104;BME280;34915;52.926;11.116;2022-08-18T11:17:38;101053.66;;;25.70;69.49
49104;BME280;34915;52.926;11.116;2022-08-18T11:20:10;101062.81;;;25.69;70.63
49104;BME280;34915;52.926;11.116;2022-08-18T11:22:37;101056.59;;;25.75;70.13
49104;BME280;34915;52.926;11.116;2022-08-18T11:25:19;101045.34;;;25.78;67.65
49104;BME280;34915;52.926;11.116;2022-08-18T11:27:47;101053.34;;;25.65;70.04
49104;BME280;34915;52.926;11.116;2022-08-18T11:30:13;101061.50;;;25.65;69.46
49104;BME280;34915;52.926;11.116;2022-08-18T11:32:40;101048.88;;;25.51;69.80
49104;BME280;34915;52.926;11.116;2022-08-18T11:37:48;101054.41;;;25.64;69.49
49104;BME280;34915;52.926;11.116;2022-08-18T11:42:59;101045.09;;;25.52;69.77
49104;BME280;34915;52.926;11.116;2022-08-18T11:45:35;101037.22;;;25.57;69.41
49104;BME280;34915;52.926;11.116;2022-08-18T11:58:43;101036.97;;;25.52;71.83
49104;BME280;34915;52.926;11.116;2022-08-18T12:06:33;101032.78;;;25.77;70.88
49104;BME280;34915;52.926;11.116;2022-08-18T12:09:17;101031.22;;;25.88;69.69
49104;BME280;34915;52.926;11.116;2022-08-18T12:11:54;101021.69;;;26.05;67.55
49104;BME280;34915;52.926;11.116;2022-08-18T12:14:29;101032.69;;;26.25;67.70
49104;BME280;34915;52.926;11.116;2022-08-18T12:16:55;101032.34;;;26.34;66.52
49104;BME280;34915;52.926;11.116;2022-08-18T12:19:22;101033.13;;;26.28;67.82
49104;BME280;34915;52.926;11.116;2022-08-18T12:21:56;101037.78;;;26.34;67.21
49104;BME280;34915;52.926;11.116;2022-08-18T12:24:31;101031.78;;;26.45;67.54
49104;BME280;34915;52.926;11.116;2022-08-18T12:26:58;101029.06;;;26.45;67.27
49104;BME280;34915;52.926;11.116;2022-08-18T12:29:25;101024.03;;;26.48;65.75
49104;BME280;34915;52.926;11.116;2022-08-18T12:31:52;101018.63;;;26.55;67.21
49104;BME280;34915;52.926;11.116;2022-08-18T12:34:20;101024.28;;;26.60;64.28
49104;BME280;34915;52.926;11.116;2022-08-18T12:36:55;101012.09;;;26.43;66.28
49104;BME280;34915;52.926;11.116;2022-08-18T12:39:22;101024.31;;;26.66;64.67
49104;BME280;34915;52.926;11.116;2022-08-18T12:41:48;101015.69;;;26.50;64.88
49104;BME280;34915;52.926;11.116;2022-08-18T12:44:13;101010.69;;;26.60;64.99
49104;BME280;34915;52.926;11.116;2022-08-18T12:46:40;100999.00;;;26.66;66.01
49104;BME280;34915;52.926;11.116;2022-08-18T12:49:26;101009.84;;;26.59;67.17
49104;BME280;34915;52.926;11.116;2022-08-18T12:51:52;101002.75;;;26.58;65.68
49104;BME280;34915;52.926;11.116;2022-08-18T12:54:20;101002.78;;;26.78;64.75
49104;BME280;34915;52.926;11.116;2022-08-18T12:56:49;101001.53;;;26.86;65.07
49104;BME280;34915;52.926;11.116;2022-08-18T12:59:15;101002.44;;;26.93;64.26
49104;BME280;34915;52.926;11.116;2022-08-18T13:01:41;101008.31;;;27.03;64.05
49104;BME280;34915;52.926;11.116;2022-08-18T13:04:07;101008.72;;;27.00;64.20
49104;BME280;34915;52.926;11.116;2022-08-18T13:06:35;101016.25;;;26.98;62.08
49104;BME280;34915;52.926;11.116;2022-08-18T13:09:02;101022.56;;;27.12;62.67
49104;BME280;34915;52.926;11.116;2022-08-18T13:11:28;101026.72;;;27.14;61.67
49104;BME280;34915;52.926;11.116;2022-08-18T13:13:54;101020.03;;;27.17;62.00
49104;BME280;34915;52.926;11.116;2022-08-18T13:16:21;101035.53;;;27.16;62.13
49104;BME280;34915;52.926;11.116;2022-08-18T13:18:47;101019.22;;;27.23;61.59
49104;BME280;34915;52.926;11.116;2022-08-18T13:21:14;101014.19;;;27.26;63.36
49104;BME280;34915;52.926;11.116;2022-08-18T13:23:40;101001.84;;;27.30;62.04
49104;BME280;34915;52.926;11.116;2022-08-18T13:26:10;100991.97;;;27.29;62.32
49104;BME280;34915;52.926;11.116;2022-08-18T13:28:39;101002.44;;;27.32;62.74
49104;BME280;34915;52.926;11.116;2022-08-18T13:31:06;100997.44;;;27.35;60.18
49104;BME280;34915;52.926;11.116;2022-08-18T13:33:33;100995.78;;;27.41;61.10
49104;BME280;34915;52.926;11.116;2022-08-18T13:35:59;100997.00;;;27.45;59.15
49104;BME280;34915;52.926;11.116;2022-08-18T13:38:26;100992.63;;;27.44;59.29
49104;BME280;34915;52.926;11.116;2022-08-18T13:40:53;100992.41;;;27.39;58.75
49104;BME280;34915;52.926;11.116;2022-08-18T13:43:23;100986.56;;;27.35;61.74
49104;BME280;34915;52.926;11.116;2022-08-18T13:45:52;100989.47;;;27.34;60.25
49104;BME280;34915;52.926;11.116;2022-08-18T13:48:17;100990.31;;;27.41;61.39
49104;BME280;34915;52.926;11.116;2022-08-18T13:50:43;100979.00;;;27.44;60.77
49104;BME280;34915;52.926;11.116;2022-08-18T13:53:15;100978.16;;;27.50;59.79
49104;BME280;34915;52.926;11.116;2022-08-18T13:55:44;100984.03;;;27.66;58.48
49104;BME280;34915;52.926;11.116;2022-08-18T13:58:10;100973.97;;;27.67;57.57
49104;BME280;34915;52.926;11.116;2022-08-18T14:00:38;100974.38;;;27.64;57.91
49104;BME280;34915;52.926;11.116;2022-08-18T14:03:05;100969.78;;;27.58;58.77
49104;BME280;34915;52.926;11.116;2022-08-18T14:05:31;100964.34;;;27.64;57.50
49104;BME280;34915;52.926;11.116;2022-08-18T14:07:58;100963.69;;;27.82;57.02
49104;BME280;34915;52.926;11.116;2022-08-18T14:10:24;100957.16;;;27.82;57.15
49104;BME280;34915;52.926;11.116;2022-08-18T14:12:53;100958.69;;;27.66;57.83
49104;BME280;34915;52.926;11.116;2022-08-18T14:15:20;100970.63;;;27.65;58.47
49104;BME280;34915;52.926;11.116;2022-08-18T14:17:47;100987.81;;;27.59;58.50
49104;BME280;34915;52.926;11.116;2022-08-18T14:20:13;100992.00;;;27.48;58.16
49104;BME280;34915;52.926;11.116;2022-08-18T14:22:59;100989.91;;;27.44;57.48
49104;BME280;34915;52.926;11.116;2022-08-18T14:25:48;100992.41;;;27.39;58.77
49104;BME280;34915;52.926;11.116;2022-08-18T14:28:33;100985.72;;;27.35;59.28
49104;BME280;34915;52.926;11.116;2022-08-18T14:31:01;100992.41;;;27.26;60.53
49104;BME280;34915;52.926;11.116;2022-08-18T14:33:28;100996.59;;;27.29;59.14
49104;BME280;34915;52.926;11.116;2022-08-18T14:35:56;100994.50;;;27.24;60.24
49104;BME280;34915;52.926;11.116;2022-08-18T14:38:21;100987.38;;;27.23;60.45
49104;BME280;34915;52.926;11.116;2022-08-18T14:40:47;100984.03;;;27.08;61.30
49104;BME280;34915;52.926;11.116;2022-08-18T14:43:16;100981.94;;;27.04;61.36
49104;BME280;34915;52.926;11.116;2022-08-18T14:45:43;100984.44;;;27.05;61.59
49104;BME280;34915;52.926;11.116;2022-08-18T14:48:13;100995.75;;;27.22;61.17
49104;BME280;34915;52.926;11.116;2022-08-18T14:50:41;100983.84;;;27.16;61.11
49104;BME280;34915;52.926;11.116;2022-08-18T14:53:08;100981.94;;;27.10;61.08
49104;BME280;34915;52.926;11.116;2022-08-18T14:55:34;100973.16;;;27.08;61.51
49104;BME280;34915;52.926;11.116;2022-08-18T14:58:02;100992.63;;;26.99;62.61
49104;BME280;34915;52.926;11.116;2022-08-18T15:00:29;100994.47;;;26.98;62.11
49104;BME280;34915;52.926;11.116;2022-08-18T15:02:56;100991.97;;;26.97;62.65
49104;BME280;34915;52.926;11.116;2022-08-18T15:05:22;100998.25;;;26.97;62.27
49104;BME280;34915;52.926;11.116;2022-08-18T15:07:48;101004.13;;;26.94;61.94
49104;BME280;34915;52.926;11.116;2022-08-18T15:10:15;100994.00;;;26.88;62.15
49104;BME280;34915;52.926;11.116;2022-08-18T15:12:42;100994.00;;;26.88;62.11
49104;BME280;34915;52.926;11.116;2022-08-18T15:15:10;100986.47;;;26.84;61.99
49104;BME280;34915;52.926;11.116;2022-08-18T15:17:38;100972.22;;;26.63;62.83